Time;durP1;ratioP1;P1;durP2;ratioP2;P2;SDS_P1;SDS_P2;PMS_P1;PMS_P2;Temp;Humidity;BMP_temperature;BMP_pressure;BME280_temperature;BME280_humidity;BME280_pressure;Samples;Min_cycle;Max_cycle;Signal;HPM_P1;HPM_P2
2020/12/29 00:01:50;;;;;;;28.60;18.03;;;;;;;0.87;100.00;99477.14;1652680;86;21460;-71
2020/12/29 00:04:20;;;;;;;29.77;16.00;;;;;;;0.89;100.00;99472.98;1667708;86;21146;-72
2020/12/29 00:06:53;;;;;;;28.03;16.63;;;;;;;0.90;100.00;99466.69;1669741;85;21548;-70
2020/12/29 00:09:23;;;;;;;27.50;16.70;;;;;;;0.88;100.00;99460.25;1669576;86;21182;-72
2020/12/29 00:11:55;;;;;;;35.20;18.33;;;;;;;0.90;100.00;99471.16;1638580;86;21631;-74
2020/12/29 00:14:26;;;;;;;35.70;20.47;;;;;;;0.87;100.00;99469.20;1669631;86;21466;-71
2020/12/29 00:16:54;;;;;;;33.57;18.40;;;;;;;0.90;100.00;99461.90;1669660;86;21158;-72
2020/12/29 00:19:25;;;;;;;33.00;22.17;;;;;;;0.93;100.00;99476.06;1668681;85;21570;-71
2020/12/29 00:21:54;;;;;;;30.30;18.00;;;;;;;0.96;100.00;99467.22;1669462;86;21171;-69
2020/12/29 00:24:22;;;;;;;28.53;17.80;;;;;;;0.95;100.00;99464.28;1668797;86;21138;-71
2020/12/29 00:26:53;;;;;;;30.10;18.90;;;;;;;0.96;100.00;99469.08;1666900;84;21427;-73
2020/12/29 00:29:21;;;;;;;30.03;18.73;;;;;;;0.98;100.00;99474.48;1669455;86;21170;-71
2020/12/29 00:31:49;;;;;;;30.00;20.10;;;;;;;0.98;100.00;99467.86;1651733;86;21035;-68
2020/12/29 00:34:18;;;;;;;29.80;17.83;;;;;;;0.99;100.00;99456.27;1643595;86;21169;-72
2020/12/29 00:36:46;;;;;;;27.70;15.37;;;;;;;0.99;100.00;99444.34;1643315;86;21126;-69
2020/12/29 00:39:13;;;;;;;23.47;15.70;;;;;;;1.00;100.00;99443.34;1668657;86;21410;-68
2020/12/29 00:41:42;;;;;;;33.27;19.20;;;;;;;0.98;100.00;99454.62;1669688;86;21190;-69
2020/12/29 00:44:10;;;;;;;27.70;17.20;;;;;;;1.02;100.00;99469.09;1669803;86;22248;-68
2020/12/29 00:46:38;;;;;;;25.57;14.60;;;;;;;1.03;100.00;99464.12;1669744;86;21181;-69
2020/12/29 00:49:07;;;;;;;26.80;15.80;;;;;;;1.03;100.00;99464.62;1669103;86;21679;-68
2020/12/29 00:51:34;;;;;;;33.27;21.17;;;;;;;1.04;100.00;99445.91;1669563;86;21605;-74
2020/12/29 00:54:02;;;;;;;35.90;21.40;;;;;;;1.01;100.00;99459.52;1660586;85;21247;-72
2020/12/29 00:56:33;;;;;;;35.50;19.73;;;;;;;0.99;100.00;99452.28;1656859;85;21055;-71
2020/12/29 00:59:01;;;;;;;37.17;22.13;;;;;;;0.99;100.00;99428.96;1653455;85;21239;-70
2020/12/29 01:01:31;;;;;;;31.50;20.50;;;;;;;0.99;100.00;99417.05;1640925;86;21624;-73
2020/12/29 01:04:09;;;;;;;38.30;20.67;;;;;;;1.05;100.00;99407.83;1889215;76;22592;-72
2020/12/29 01:06:37;;;;;;;37.20;20.77;;;;;;;0.94;100.00;99432.20;1860173;77;20986;-71
2020/12/29 01:09:07;;;;;;;31.80;17.57;;;;;;;0.91;100.00;99448.98;1817417;78;22836;-69
2020/12/29 01:11:36;;;;;;;41.27;24.07;;;;;;;0.92;100.00;99432.88;1787052;80;21284;-70
2020/12/29 01:14:05;;;;;;;28.00;17.30;;;;;;;0.92;100.00;99422.30;1789059;78;21047;-70
2020/12/29 01:16:36;;;;;;;30.33;17.10;;;;;;;0.97;100.00;99437.59;1753587;81;21003;-74
2020/12/29 01:19:04;;;;;;;37.73;22.20;;;;;;;1.01;100.00;99429.59;1775333;80;21533;-75
2020/12/29 01:21:32;;;;;;;33.57;21.33;;;;;;;1.02;100.00;99435.18;1816928;79;21318;-75
2020/12/29 01:23:59;;;;;;;36.53;20.77;;;;;;;1.06;100.00;99441.22;1821701;79;21003;-75
2020/12/29 01:26:27;;;;;;;31.13;19.50;;;;;;;1.04;100.00;99428.70;1762514;81;20955;-69
2020/12/29 01:28:55;;;;;;;27.87;18.53;;;;;;;1.04;100.00;99400.07;1734624;82;21145;-70
2020/12/29 01:31:29;;;;;;;25.33;16.03;;;;;;;1.06;100.00;99415.23;1778334;80;21106;-68
2020/12/29 01:33:59;;;;;;;28.53;18.57;;;;;;;1.05;100.00;99416.28;1786980;80;21431;-69
2020/12/29 01:36:27;;;;;;;27.00;17.87;;;;;;;1.07;100.00;99420.34;1788994;80;21169;-72
2020/12/29 01:38:55;;;;;;;29.53;17.87;;;;;;;1.09;100.00;99411.72;1789157;80;21000;-71
2020/12/29 01:41:23;;;;;;;37.57;22.90;;;;;;;1.07;100.00;99408.94;1776245;80;21189;-71
2020/12/29 01:43:51;;;;;;;33.00;18.97;;;;;;;1.06;100.00;99403.33;1757916;81;21683;-71
2020/12/29 01:46:18;;;;;;;33.70;19.43;;;;;;;1.07;100.00;99415.55;1757902;81;21747;-72
2020/12/29 01:48:46;;;;;;;26.97;17.00;;;;;;;1.02;100.00;99420.63;1758743;80;20944;-71
2020/12/29 01:51:14;;;;;;;33.93;19.27;;;;;;;1.01;100.00;99407.09;1777884;80;20980;-72
2020/12/29 01:53:41;;;;;;;28.83;17.93;;;;;;;1.06;100.00;99396.70;1758266;80;21205;-70
2020/12/29 01:56:10;;;;;;;26.33;16.27;;;;;;;1.11;100.00;99395.11;1785109;80;21146;-71
2020/12/29 01:58:40;;;;;;;29.47;17.60;;;;;;;1.13;100.00;99390.45;1765110;81;21510;-73
2020/12/29 02:01:08;;;;;;;33.27;17.10;;;;;;;1.08;100.00;99380.12;1789732;80;21102;-73
2020/12/29 02:03:38;;;;;;;31.73;19.87;;;;;;;1.06;100.00;99402.00;1737710;81;20980;-71
2020/12/29 02:06:06;;;;;;;30.67;18.37;;;;;;;1.02;100.00;99392.31;1764734;81;21615;-73
2020/12/29 02:08:33;;;;;;;36.57;23.67;;;;;;;1.05;100.00;99388.47;1770362;80;21129;-73
2020/12/29 02:11:02;;;;;;;35.70;18.17;;;;;;;1.09;100.00;99380.44;1770398;80;22102;-71
2020/12/29 02:13:31;;;;;;;27.87;16.67;;;;;;;1.04;100.00;99387.66;1786692;79;21570;-71
2020/12/29 02:15:59;;;;;;;28.63;15.67;;;;;;;1.03;100.00;99372.77;1758492;80;21153;-72
2020/12/29 02:18:26;;;;;;;31.77;17.20;;;;;;;1.02;100.00;99356.56;1786264;80;21145;-69
2020/12/29 02:20:55;;;;;;;27.23;17.33;;;;;;;1.00;100.00;99345.87;1786348;80;21125;-73
2020/12/29 02:23:22;;;;;;;14.90;10.17;;;;;;;0.98;100.00;99362.45;1786285;80;22277;-69
2020/12/29 02:25:50;;;;;;;29.80;17.30;;;;;;;0.98;100.00;99355.83;1787053;79;21623;-73
2020/12/29 02:28:17;;;;;;;21.23;13.00;;;;;;;0.95;100.00;99358.38;1770243;80;21133;-71
2020/12/29 02:30:45;;;;;;;25.77;16.80;;;;;;;0.97;100.00;99351.55;1755620;81;21153;-73
2020/12/29 02:33:13;;;;;;;19.67;12.93;;;;;;;0.96;100.00;99373.77;1764088;81;21142;-69
2020/12/29 02:35:42;;;;;;;25.73;17.97;;;;;;;0.93;100.00;99352.95;1764242;80;22247;-70
2020/12/29 02:38:09;;;;;;;22.73;13.87;;;;;;;0.90;100.00;99355.50;1765988;80;21015;-71
2020/12/29 02:40:37;;;;;;;27.53;14.47;;;;;;;0.90;100.00;99344.92;1785430;79;21126;-69
2020/12/29 02:43:05;;;;;;;29.03;18.20;;;;;;;0.88;100.00;99362.31;1783445;80;21074;-68
2020/12/29 02:45:33;;;;;;;25.87;16.23;;;;;;;0.92;100.00;99356.61;1801451;79;21122;-69
2020/12/29 02:48:01;;;;;;;27.13;16.60;;;;;;;0.92;100.00;99335.43;1752347;80;21401;-69
2020/12/29 02:50:31;;;;;;;26.70;16.53;;;;;;;0.95;100.00;99357.56;1755988;80;21055;-69
2020/12/29 02:52:59;;;;;;;25.40;16.10;;;;;;;1.01;100.00;99355.47;1772537;80;21557;-69
2020/12/29 02:55:27;;;;;;;23.93;15.33;;;;;;;1.02;100.00;99362.37;1788568;80;20991;-73
2020/12/29 02:57:55;;;;;;;24.23;12.37;;;;;;;0.99;100.00;99349.53;1800757;79;21134;-69
2020/12/29 03:00:23;;;;;;;23.83;14.47;;;;;;;0.97;100.00;99348.39;1748769;82;21358;-69
2020/12/29 03:02:53;;;;;;;20.97;15.27;;;;;;;0.96;100.00;99350.73;1749768;81;21189;-69
2020/12/29 03:05:21;;;;;;;17.80;11.57;;;;;;;0.96;100.00;99336.16;1772667;81;21057;-69
2020/12/29 03:08:06;;;;;;;21.23;11.53;;;;;;;0.99;100.00;99320.41;1772718;81;20986;-71
2020/12/29 03:10:34;;;;;;;17.27;12.17;;;;;;;0.99;100.00;99323.06;1773305;79;21173;-70
2020/12/29 03:13:02;;;;;;;17.03;11.37;;;;;;;1.02;100.00;99327.95;1783393;79;21504;-69
2020/12/29 03:15:30;;;;;;;13.33;7.30;;;;;;;0.99;100.00;99333.65;1801460;79;21137;-70
2020/12/29 03:18:00;;;;;;;19.20;13.73;;;;;;;0.96;100.00;99337.48;1762861;80;21163;-66
2020/12/29 03:20:29;;;;;;;16.07;10.67;;;;;;;0.96;100.00;99338.81;1763053;80;21154;-66
2020/12/29 03:22:58;;;;;;;19.67;13.57;;;;;;;0.99;100.00;99327.84;1788914;79;21150;-66
2020/12/29 03:25:26;;;;;;;15.23;10.13;;;;;;;0.98;100.00;99330.68;1788054;79;21392;-65
2020/12/29 03:27:56;;;;;;;16.37;11.47;;;;;;;1.01;100.00;99340.91;1788921;80;21165;-66
2020/12/29 03:30:26;;;;;;;15.47;11.13;;;;;;;1.01;100.00;99340.36;1771454;79;21170;-65
2020/12/29 03:32:54;;;;;;;16.77;12.60;;;;;;;1.01;100.00;99327.66;1789201;80;21031;-66
2020/12/29 03:35:22;;;;;;;13.17;9.23;;;;;;;1.02;100.00;99342.52;1790996;78;21003;-66
2020/12/29 03:37:51;;;;;;;13.57;9.33;;;;;;;1.05;100.00;99339.48;1789660;79;23495;-65
2020/12/29 03:40:20;;;;;;;12.67;9.73;;;;;;;1.08;100.00;99337.76;1815557;78;21134;-66
2020/12/29 03:42:48;;;;;;;16.03;11.40;;;;;;;1.11;100.00;99341.33;1786714;80;21129;-68
2020/12/29 03:45:16;;;;;;;17.03;12.23;;;;;;;1.11;100.00;99338.67;1766717;81;20990;-66
2020/12/29 03:47:45;;;;;;;20.23;14.23;;;;;;;1.17;100.00;99343.19;1788284;80;21173;-66
2020/12/29 03:50:13;;;;;;;20.20;12.60;;;;;;;1.17;100.00;99340.04;1757952;81;21574;-66
2020/12/29 03:52:40;;;;;;;14.70;10.37;;;;;;;1.18;100.00;99324.97;1791051;78;20995;-67
2020/12/29 03:55:08;;;;;;;15.83;10.63;;;;;;;1.19;100.00;99320.80;1766545;81;22126;-66
2020/12/29 03:57:36;;;;;;;20.37;13.67;;;;;;;1.19;100.00;99318.16;1776695;79;21109;-66
2020/12/29 04:00:06;;;;;;;21.60;14.00;;;;;;;1.20;100.00;99326.39;1768166;79;21145;-67
2020/12/29 04:02:36;;;;;;;23.83;12.60;;;;;;;1.20;100.00;99318.98;1766367;81;21381;-67
2020/12/29 04:05:08;;;;;;;17.20;10.40;;;;;;;1.14;100.00;99319.27;1761763;80;21055;-66
2020/12/29 04:07:36;;;;;;;23.07;15.70;;;;;;;1.08;100.00;99325.34;1761842;81;21141;-68
2020/12/29 04:10:04;;;;;;;25.30;16.27;;;;;;;1.04;100.00;99325.94;1761826;81;21569;-68
2020/12/29 04:12:33;;;;;;;22.13;13.00;;;;;;;0.97;100.00;99331.69;1761657;80;21158;-68
2020/12/29 04:15:01;;;;;;;26.60;16.20;;;;;;;0.96;100.00;99343.32;1761718;81;21166;-66
2020/12/29 04:17:36;;;;;;;24.73;13.90;;;;;;;0.96;100.00;99359.99;1761536;81;21148;-66
2020/12/29 04:20:09;;;;;;;28.93;16.63;;;;;;;0.97;100.00;99343.60;1761564;81;21031;-66
2020/12/29 04:25:18;;;;;;;22.83;16.37;;;;;;;1.08;100.00;99326.66;1861000;76;22576;-68
2020/12/29 04:27:46;;;;;;;36.30;22.13;;;;;;;1.07;100.00;99324.20;1825238;78;20986;-66
2020/12/29 04:30:14;;;;;;;30.33;18.20;;;;;;;1.06;100.00;99311.97;1819168;78;21357;-64
2020/12/29 04:32:41;;;;;;;28.70;17.97;;;;;;;1.05;100.00;99320.45;1820707;78;21164;-64
2020/12/29 04:35:09;;;;;;;35.07;19.73;;;;;;;1.03;100.00;99331.73;1821179;78;21567;-66
2020/12/29 04:37:37;;;;;;;27.43;17.60;;;;;;;0.98;100.00;99319.59;1821157;78;21546;-65
2020/12/29 04:40:05;;;;;;;32.53;17.93;;;;;;;1.01;100.00;99317.07;1824776;78;21130;-65
2020/12/29 04:42:33;;;;;;;34.70;20.00;;;;;;;1.08;100.00;99317.39;1826483;78;21233;-65
2020/12/29 04:45:02;;;;;;;26.20;14.67;;;;;;;1.08;100.00;99308.63;1800155;78;20991;-64
2020/12/29 04:47:30;;;;;;;31.53;18.87;;;;;;;1.01;100.00;99311.77;1825481;78;20970;-66
2020/12/29 04:49:58;;;;;;;34.57;21.47;;;;;;;1.02;100.00;99325.30;1802614;78;21010;-64
2020/12/29 04:52:27;;;;;;;33.63;19.07;;;;;;;1.01;100.00;99327.66;1824470;78;21121;-64
2020/12/29 04:54:56;;;;;;;34.23;20.20;;;;;;;1.04;100.00;99315.34;1824833;77;21196;-65
2020/12/29 04:57:24;;;;;;;43.87;22.50;;;;;;;1.01;100.00;99314.42;1817089;78;21188;-67
2020/12/29 04:59:53;;;;;;;36.03;19.13;;;;;;;0.98;100.00;99316.94;1819353;78;21157;-64
2020/12/29 05:02:21;;;;;;;38.43;22.87;;;;;;;0.93;100.00;99310.09;1771288;79;21217;-65
2020/12/29 05:04:49;;;;;;;37.43;21.27;;;;;;;0.92;100.00;99300.52;1751071;81;21586;-67
2020/12/29 05:07:17;;;;;;;42.87;23.47;;;;;;;0.94;100.00;99304.30;1757123;81;22262;-66
2020/12/29 05:09:47;;;;;;;37.13;19.77;;;;;;;0.95;100.00;99298.00;1763043;80;21006;-66
2020/12/29 05:12:17;;;;;;;39.00;25.37;;;;;;;0.92;100.00;99308.96;1784005;80;21164;-65
2020/12/29 05:14:46;;;;;;;43.53;27.27;;;;;;;0.93;100.00;99315.89;1734035;82;21220;-70
2020/12/29 05:17:14;;;;;;;48.47;27.10;;;;;;;0.99;100.00;99296.58;1733820;82;21165;-68
2020/12/29 05:19:44;;;;;;;49.43;27.00;;;;;;;1.00;100.00;99277.04;1703126;82;21313;-68
2020/12/29 05:22:12;;;;;;;49.83;26.60;;;;;;;0.94;100.00;99257.97;1733796;80;21192;-69
2020/12/29 05:24:46;;;;;;;50.30;25.57;;;;;;;0.92;100.00;99265.28;1778001;80;21615;-66
2020/12/29 05:27:14;;;;;;;46.13;26.30;;;;;;;0.89;100.00;99274.45;1748359;80;21145;-65
2020/12/29 05:29:42;;;;;;;51.70;31.20;;;;;;;0.89;100.00;99274.45;1787219;80;21133;-66
2020/12/29 05:32:19;;;;;;;40.07;20.33;;;;;;;0.92;100.00;99310.28;1787799;80;21524;-68
2020/12/29 05:34:47;;;;;;;50.50;27.00;;;;;;;0.96;100.00;99333.52;1748709;81;21176;-65
2020/12/29 05:37:15;;;;;;;40.97;24.27;;;;;;;0.96;100.00;99331.41;1783656;80;21161;-66
2020/12/29 05:39:44;;;;;;;49.17;27.57;;;;;;;1.01;100.00;99328.45;1754853;81;21193;-65
2020/12/29 05:42:12;;;;;;;49.33;25.80;;;;;;;1.04;100.00;99314.02;1784518;80;21165;-65
2020/12/29 05:44:40;;;;;;;44.33;23.03;;;;;;;1.08;100.00;99302.83;1771250;80;21282;-66
2020/12/29 05:47:12;;;;;;;34.20;18.90;;;;;;;1.07;100.00;99297.72;1786382;80;21165;-66
2020/12/29 05:49:39;;;;;;;34.40;20.33;;;;;;;0.99;100.00;99297.41;1755061;81;21011;-67
2020/12/29 05:52:07;;;;;;;39.43;21.63;;;;;;;0.87;100.00;99294.99;1713050;81;21610;-66
2020/12/29 05:54:35;;;;;;;37.63;19.53;;;;;;;0.82;100.00;99299.55;1786373;80;21869;-65
2020/12/29 05:57:03;;;;;;;39.90;22.37;;;;;;;0.83;100.00;99295.91;1737420;81;21473;-67
2020/12/29 05:59:31;;;;;;;35.63;19.00;;;;;;;0.83;100.00;99306.48;1786057;80;21152;-67
2020/12/29 06:01:59;;;;;;;46.73;26.57;;;;;;;0.84;100.00;99331.95;1712890;81;21574;-66
2020/12/29 06:04:26;;;;;;;27.70;14.63;;;;;;;0.87;100.00;99328.90;1781260;80;21190;-65
2020/12/29 06:06:54;;;;;;;30.03;16.90;;;;;;;0.92;100.00;99332.78;1744308;81;21137;-65
2020/12/29 06:09:21;;;;;;;31.70;18.23;;;;;;;0.91;100.00;99328.02;1756220;80;21197;-66
2020/12/29 06:11:53;;;;;;;36.40;21.57;;;;;;;0.88;100.00;99332.37;1733971;81;21149;-67
2020/12/29 06:14:24;;;;;;;32.70;18.73;;;;;;;0.88;100.00;99322.59;1737633;81;21030;-68
2020/12/29 06:16:55;;;;;;;25.80;15.30;;;;;;;0.89;100.00;99312.83;1732101;82;21164;-63
2020/12/29 06:19:28;;;;;;;34.53;18.30;;;;;;;0.85;100.00;99300.50;1733511;82;21172;-65
2020/12/29 06:22:13;;;;;;;;;;;;;;;0.82;100.00;99305.35;1735066;82;21197;-65
2020/12/29 06:24:42;;;;;;;;;;;;;;;0.81;100.00;99299.27;1734875;82;20256;-65
2020/12/29 06:27:11;;;;;;;32.90;16.93;;;;;;;0.83;100.00;99293.25;1732767;82;20498;-66
2020/12/29 06:29:46;;;;;;;31.27;17.60;;;;;;;0.77;100.00;99285.27;1732649;82;21224;-65
2020/12/29 06:32:21;;;;;;;32.20;19.63;;;;;;;0.79;100.00;99269.52;1732723;82;21501;-66
2020/12/29 06:34:49;;;;;;;31.03;17.87;;;;;;;0.82;100.00;99261.17;1732743;82;21385;-65
2020/12/29 06:37:21;;;;;;;34.63;21.80;;;;;;;0.81;100.00;99270.16;1732633;82;21110;-64
2020/12/29 06:39:53;;;;;;;41.10;24.90;;;;;;;0.79;100.00;99270.84;1732711;82;21165;-67
2020/12/29 06:42:21;;;;;;;40.97;24.47;;;;;;;0.79;100.00;99276.64;1732667;82;21204;-70
2020/12/29 06:44:57;;;;;;;26.37;16.03;;;;;;;0.80;100.00;99272.48;1732641;82;21149;-65
2020/12/29 06:47:27;;;;;;;31.30;19.90;;;;;;;0.78;100.00;99263.91;1732736;82;21365;-66
2020/12/29 06:49:54;;;;;;;29.17;19.80;;;;;;;0.82;100.00;99261.68;1730894;82;21147;-65
2020/12/29 06:52:29;;;;;;;22.50;13.00;;;;;;;0.86;100.00;99265.05;1713219;83;21002;-66
2020/12/29 06:54:59;;;;;;;24.73;14.37;;;;;;;0.84;100.00;99249.89;1713325;83;21172;-65
2020/12/29 06:57:41;;;;;;;26.47;15.67;;;;;;;0.84;100.00;99242.46;1713238;83;21191;-65
2020/12/29 07:00:17;;;;;;;24.77;14.47;;;;;;;0.85;100.00;99251.53;1713383;83;21671;-67
2020/12/29 07:02:49;;;;;;;22.77;13.00;;;;;;;0.82;100.00;99245.30;1714634;83;21050;-65
2020/12/29 07:05:29;;;;;;;27.20;16.17;;;;;;;0.84;100.00;99268.42;1713598;83;21160;-65
2020/12/29 07:08:06;;;;;;;21.83;12.83;;;;;;;0.85;100.00;99267.92;1712730;83;21128;-66
2020/12/29 07:10:45;;;;;;;22.03;15.00;;;;;;;0.90;100.00;99266.83;1728485;83;21127;-66
2020/12/29 07:13:17;;;;;;;25.20;14.63;;;;;;;0.95;100.00;99280.79;1728462;83;21433;-68
2020/12/29 07:15:54;;;;;;;26.02;15.15;;;;;;;0.99;100.00;99274.08;1725301;83;21200;-65
2020/12/29 07:18:26;;;;;;;25.57;16.93;;;;;;;0.99;100.00;99266.13;1713233;83;21607;-67
2020/12/29 07:20:58;;;;;;;21.20;13.20;;;;;;;1.01;100.00;99286.09;1713303;83;21192;-64
2020/12/29 07:23:28;;;;;;;21.47;12.53;;;;;;;1.02;100.00;99290.88;1713169;83;21504;-66
2020/12/29 07:25:59;;;;;;;17.13;10.63;;;;;;;0.99;100.00;99298.72;1733286;82;22305;-66
2020/12/29 07:28:29;;;;;;;26.13;16.33;;;;;;;0.95;100.00;99284.25;1736504;82;21173;-66
2020/12/29 07:30:56;;;;;;;27.37;17.90;;;;;;;0.97;100.00;99271.62;1736532;82;21179;-65
2020/12/29 07:33:27;;;;;;;22.30;13.77;;;;;;;1.03;100.00;99263.39;1736498;82;21220;-68
2020/12/29 07:35:55;;;;;;;22.93;16.23;;;;;;;1.02;100.00;99265.73;1736175;82;21159;-66
2020/12/29 07:38:25;;;;;;;22.90;12.20;;;;;;;0.99;100.00;99262.98;1736605;82;21543;-66
2020/12/29 07:40:53;;;;;;;20.97;14.73;;;;;;;1.03;100.00;99249.65;1736342;82;21167;-65
2020/12/29 07:43:21;;;;;;;24.20;14.43;;;;;;;1.07;100.00;99260.15;1706930;84;21159;-70
2020/12/29 07:45:48;;;;;;;19.20;12.43;;;;;;;1.02;100.00;99262.58;1706934;84;21589;-66
2020/12/29 07:48:16;;;;;;;24.63;14.68;;;;;;;1.04;100.00;99272.47;1707817;84;21578;-66
2020/12/29 07:50:44;;;;;;;26.97;13.43;;;;;;;1.05;100.00;99282.05;1736566;82;21380;-65
2020/12/29 07:53:12;;;;;;;26.60;15.77;;;;;;;1.05;100.00;99278.08;1717995;83;21203;-66
2020/12/29 07:55:46;;;;;;;35.27;15.57;;;;;;;1.06;100.00;99297.41;1736514;82;21112;-65
2020/12/29 07:58:13;;;;;;;24.98;16.05;;;;;;;1.03;100.00;99276.63;1736969;82;21554;-66
2020/12/29 08:00:41;;;;;;;23.97;15.10;;;;;;;1.04;100.00;99282.24;1736802;82;21557;-65
2020/12/29 08:03:09;;;;;;;19.00;9.53;;;;;;;1.05;100.00;99275.94;1736640;82;21201;-67
2020/12/29 08:05:39;;;;;;;16.70;10.13;;;;;;;1.03;100.00;99258.92;1734405;82;21180;-67
2020/12/29 08:08:10;;;;;;;13.30;8.93;;;;;;;1.03;100.00;99247.00;1736441;82;21628;-65
2020/12/29 08:10:44;;;;;;;24.90;12.98;;;;;;;0.99;100.00;99247.09;1736584;82;26786;-69
2020/12/29 08:13:14;;;;;;;24.20;13.40;;;;;;;0.98;100.00;99238.02;1736548;82;21605;-67
2020/12/29 08:15:42;;;;;;;18.73;13.40;;;;;;;1.04;100.00;99238.55;1717819;83;21423;-68
2020/12/29 08:18:19;;;;;;;14.73;9.27;;;;;;;1.06;100.00;99221.44;1717947;83;20998;-66
2020/12/29 08:20:58;;;;;;;19.20;11.70;;;;;;;1.04;100.00;99233.27;1736584;82;21102;-68
2020/12/29 08:23:29;;;;;;;25.70;16.20;;;;;;;1.02;100.00;99220.21;1737642;81;21141;-67
2020/12/29 08:26:00;;;;;;;25.97;15.37;;;;;;;1.02;100.00;99222.05;1728890;82;21570;-71
2020/12/29 08:28:33;;;;;;;20.80;12.80;;;;;;;1.06;100.00;99229.89;1697143;84;21373;-69
2020/12/29 08:31:01;;;;;;;20.43;11.63;;;;;;;1.06;100.00;99218.80;1698060;84;21628;-68
2020/12/29 08:33:30;;;;;;;19.17;12.37;;;;;;;1.05;100.00;99216.36;1697103;84;21182;-68
2020/12/29 08:36:01;;;;;;;13.33;9.30;;;;;;;1.07;100.00;99207.19;1713450;83;21029;-68
2020/12/29 08:38:43;;;;;;;17.97;12.10;;;;;;;1.04;100.00;99220.02;1726115;83;21637;-68
2020/12/29 08:41:31;;;;;;;24.43;14.40;;;;;;;1.03;100.00;99225.00;1726110;83;21370;-69
2020/12/29 08:44:01;;;;;;;20.70;12.83;;;;;;;1.03;100.00;99203.31;1714448;83;20969;-69
2020/12/29 08:46:32;;;;;;;18.27;12.50;;;;;;;1.08;100.00;99222.06;1713499;83;20993;-69
2020/12/29 08:49:04;;;;;;;26.63;16.30;;;;;;;1.15;100.00;99216.27;1667812;83;21143;-69
2020/12/29 08:51:35;;;;;;;22.03;14.20;;;;;;;1.17;100.00;99208.94;1722373;83;21171;-68
2020/12/29 08:54:15;;;;;;;19.57;13.23;;;;;;;1.17;100.00;99203.65;1726135;83;21395;-68
2020/12/29 08:56:43;;;;;;;21.17;12.90;;;;;;;1.20;100.00;99207.20;1716131;83;21665;-68
2020/12/29 08:59:15;;;;;;;18.93;12.87;;;;;;;1.20;100.00;99192.64;1718696;83;21179;-67
2020/12/29 09:01:45;;;;;;;17.30;9.60;;;;;;;1.21;100.00;99174.41;1725085;83;21147;-68
2020/12/29 09:04:38;;;;;;;18.90;11.03;;;;;;;1.24;100.00;99186.45;1713483;83;21621;-69
2020/12/29 09:07:08;;;;;;;;;;;;;;;1.28;100.00;99179.73;1716062;83;22308;-70
2020/12/29 09:09:53;;;;;;;14.43;7.40;;;;;;;1.24;100.00;99155.48;1713535;83;20570;-67
2020/12/29 09:12:23;;;;;;;13.40;8.83;;;;;;;1.21;100.00;99149.25;1713792;82;21151;-71
2020/12/29 09:15:04;;;;;;;19.15;12.40;;;;;;;1.17;100.00;99151.19;1721640;83;21139;-68
2020/12/29 09:17:36;;;;;;;20.00;13.73;;;;;;;1.19;100.00;99154.46;1726339;83;21159;-68
2020/12/29 09:20:16;;;;;;;22.50;13.03;;;;;;;1.17;100.00;99144.56;1726298;83;21190;-73
2020/12/29 09:23:11;;;;;;;17.27;11.73;;;;;;;1.17;100.00;99136.62;1725243;83;21139;-83
2020/12/29 09:25:43;;;;;;;17.23;13.27;;;;;;;1.17;100.00;99128.67;1725670;83;21162;-67
2020/12/29 09:28:19;;;;;;;15.70;10.67;;;;;;;1.19;100.00;99138.06;1723020;83;21145;-69
2020/12/29 09:30:54;;;;;;;17.27;10.43;;;;;;;1.23;100.00;99143.26;1709774;84;21587;-69
2020/12/29 09:33:22;;;;;;;16.80;11.23;;;;;;;1.29;100.00;99135.02;1703470;83;21413;-69
2020/12/29 09:35:50;;;;;;;19.05;11.97;;;;;;;1.31;100.00;99127.16;1716662;83;21123;-68
2020/12/29 09:38:19;;;;;;;17.63;12.30;;;;;;;1.28;100.00;99139.49;1725265;83;21116;-69
2020/12/29 09:40:50;;;;;;;14.90;10.13;;;;;;;1.27;100.00;99135.72;1723374;83;21053;-69
2020/12/29 09:43:18;;;;;;;16.77;10.58;;;;;;;1.31;100.00;99126.34;1725014;83;21215;-68
2020/12/29 09:45:47;;;;;;;14.07;11.10;;;;;;;1.32;100.00;99105.45;1723784;82;21198;-68
2020/12/29 09:48:15;;;;;;;19.92;12.70;;;;;;;1.37;100.00;99087.63;1725125;83;21183;-68
2020/12/29 09:50:43;;;;;;;12.40;10.10;;;;;;;1.36;100.00;99083.34;1725124;83;21609;-68
2020/12/29 09:53:11;;;;;;;21.17;12.33;;;;;;;1.26;100.00;99090.38;1725185;83;21615;-69
2020/12/29 09:55:39;;;;;;;21.33;11.90;;;;;;;1.24;100.00;99085.30;1717413;82;21129;-69
2020/12/29 09:58:07;;;;;;;17.23;11.97;;;;;;;1.28;100.00;99070.63;1711750;83;21204;-69
2020/12/29 10:00:36;;;;;;;15.78;9.70;;;;;;;1.28;100.00;99055.24;1710029;83;21173;-72
2020/12/29 10:03:05;;;;;;;18.53;12.60;;;;;;;1.30;100.00;99053.19;1715396;83;21545;-69
2020/12/29 10:05:36;;;;;;;16.03;11.07;;;;;;;1.27;100.00;99049.63;1722917;83;21167;-68
2020/12/29 10:08:03;;;;;;;20.40;12.60;;;;;;;1.25;100.00;99058.28;1725258;83;21120;-68
2020/12/29 10:10:31;;;;;;;13.13;9.40;;;;;;;1.27;100.00;99068.98;1725373;83;21390;-69
2020/12/29 10:12:59;;;;;;;17.00;11.50;;;;;;;1.30;100.00;99067.75;1723996;83;21236;-68
2020/12/29 10:15:27;;;;;;;15.73;10.47;;;;;;;1.27;100.00;99054.42;1725227;83;21179;-69
2020/12/29 10:17:57;;;;;;;19.07;13.20;;;;;;;1.27;100.00;99041.18;1724674;83;21646;-69
2020/12/29 10:20:24;;;;;;;13.83;10.30;;;;;;;1.28;100.00;99034.05;1725171;83;21578;-69
2020/12/29 10:22:52;;;;;;;20.30;13.73;;;;;;;1.26;100.00;99031.59;1722166;83;21176;-69
2020/12/29 10:25:20;;;;;;;25.43;12.97;;;;;;;1.26;100.00;99014.89;1725688;82;21273;-69
2020/12/29 10:27:48;;;;;;;13.93;10.50;;;;;;;1.27;100.00;99016.52;1718432;83;21140;-67
2020/12/29 10:30:16;;;;;;;17.23;10.43;;;;;;;1.23;100.00;99005.54;1713516;83;21152;-68
2020/12/29 10:32:43;;;;;;;16.90;12.17;;;;;;;1.25;100.00;98995.53;1725201;83;21139;-76
2020/12/29 10:35:11;;;;;;;13.55;9.13;;;;;;;1.28;100.00;99004.92;1728734;83;21487;-71
2020/12/29 10:37:46;;;;;;;17.10;11.63;;;;;;;1.34;100.00;99018.66;1727465;83;21179;-70
2020/12/29 10:40:14;;;;;;;15.07;10.87;;;;;;;1.36;100.00;99021.09;1729063;83;21155;-69
2020/12/29 10:42:41;;;;;;;17.17;11.80;;;;;;;1.38;100.00;99017.73;1728147;83;21597;-69
2020/12/29 10:45:09;;;;;;;24.87;14.83;;;;;;;1.39;100.00;99024.13;1726997;83;21143;-73
2020/12/29 10:47:37;;;;;;;15.57;10.90;;;;;;;1.41;100.00;99017.31;1728662;83;21529;-70
2020/12/29 10:50:05;;;;;;;16.93;11.63;;;;;;;1.40;100.00;99009.87;1728700;83;21107;-68
2020/12/29 10:52:32;;;;;;;14.65;10.50;;;;;;;1.40;100.00;99017.00;1728766;83;21171;-67
2020/12/29 10:55:00;;;;;;;18.93;13.77;;;;;;;1.38;100.00;99019.88;1728725;83;21157;-70
2020/12/29 10:57:28;;;;;;;18.47;13.00;;;;;;;1.41;100.00;99017.31;1726968;82;21183;-70
2020/12/29 10:59:56;;;;;;;16.70;11.63;;;;;;;1.51;100.00;99019.02;1714598;83;21208;-78
2020/12/29 11:02:24;;;;;;;16.60;11.27;;;;;;;1.58;100.00;99019.29;1742363;81;21190;-75
2020/12/29 11:04:53;;;;;;;16.67;10.90;;;;;;;1.56;100.00;99026.66;1734978;81;21329;-71
2020/12/29 11:07:21;;;;;;;16.77;11.18;;;;;;;1.58;100.00;99029.11;1724035;81;21169;-70
2020/12/29 11:09:50;;;;;;;13.83;10.23;;;;;;;1.59;100.00;99023.58;1713995;83;21586;-71
2020/12/29 11:12:18;;;;;;;16.42;12.50;;;;;;;1.57;100.00;99032.77;1713765;83;21399;-73
2020/12/29 11:14:46;;;;;;;20.82;11.50;;;;;;;1.60;100.00;99016.45;1713717;83;21558;-70
2020/12/29 11:17:14;;;;;;;16.23;9.65;;;;;;;1.56;100.00;99017.37;1715282;83;21093;-70
2020/12/29 11:19:45;;;;;;;18.13;13.23;;;;;;;1.54;100.00;99021.24;1728822;82;21600;-72
2020/12/29 11:22:12;;;;;;;18.67;9.95;;;;;;;1.58;100.00;99031.22;1728959;83;21131;-76
2020/12/29 11:24:40;;;;;;;20.15;12.43;;;;;;;1.59;100.00;99016.13;1719430;83;21549;-75
2020/12/29 11:27:08;;;;;;;17.15;11.97;;;;;;;1.63;100.00;99016.83;1713926;81;21200;-77
2020/12/29 11:29:36;;;;;;;18.35;12.78;;;;;;;1.70;100.00;99015.50;1699758;84;21167;-79
2020/12/29 11:32:04;;;;;;;16.82;10.98;;;;;;;1.74;100.00;99019.35;1699473;84;21163;-75
2020/12/29 11:34:32;;;;;;;21.40;13.43;;;;;;;1.70;100.00;99001.73;1714739;83;21203;-74